עמוד ראשי
METAR-TAF:

METAR-TAF

שדות תעופה :

אסדת קידוח

Snorre A, נורבגיה

קו רוחב: 61-27N, קו אורך: 2-09E, גובה: 10מטר

תצפית מזג אוויר נוכחית

הדו"ח נערך לפני 40דקות, בשעה 21:20 UTC
רוח 4קשר מכיוון צפון-מערב
טמפרטורת 9 צלסיוס
לחות 81%
לחץ 1017 hPa
ראות 10 קילומטר או יותר

METAR: ENSE 182120Z AUTO 32004KT 9999 BKN020/// 09/06 Q1017 W///S3

זמן: 00:00 (22:00 UTC)


TAF: חסר

תצפיות ותחזיות מזג אוויר לגבי יותר מ- 4,000 שדות תעופה ברחבי העולם. דוחות METAR ו- TAF.

התחנות הזמינות מסומנות בנקודות צהובות ואדומות על גבי המפה.

העבר את העכבר לנקודה הצבעונית על מנת לראות את שם התחנה.

לאחר מכן, לחץ כדי לראות את תוכן ואת תחזיות מזג האוויר.

כדי לשנות את המפה: לחץ על הכפתורים הירוקים עם הפלוס השחור כדי להתקרב; על הכפתור הירוק עם המקף כדי להתרחק; או בחיצים הירוקים למפות סמוכות.


METAR-TAF: